Ohiopyle, PA (15470)

6:41 PM EDT on August 19, 2017 (GMT -0400)
KPACONFL2 | | Change Station
Active Advisory: Severe Thunderstorm Watch

Elev 1336 ft 39.81 °N, 79.36 °W | Updated 4 seconds ago

Rain
Rain
66.1 °F
Feels Like 66.1 °F
N
0.0
Wind Variable Wind from NNW
Gusts 9.0 mph

Today
High -- | Low -- °F
--% Chance of Precip.
Yesterday
High -- | Low -- °F
Precip. -- in
Pressure 30.01 in
Visibility 10.0 miles
Clouds Scattered Clouds 3600 ft
Scattered Clouds 4500 ft
Dew Point 63 °F
Humidity 89%
Rainfall 0.55 in
Snow Depth Not available.
6:33 AM 8:08 PM
Waning Crescent, 4% visible
METAR K2G4 192235Z AUTO 25006KT 10SM SCT036 SCT045 22/15 A3001 RMK AO1
Pressure 30.01 in
Visibility 10.0 miles
Clouds Scattered Clouds 3600 ft
Scattered Clouds 4500 ft
Dew Point 63 °F
Humidity 89%
Rainfall 0.55 in
Snow Depth Not available.
6:33 AM 8:08 PM
Waning Crescent, 4% visible
METAR K2G4 192235Z AUTO 25006KT 10SM SCT036 SCT045 22/15 A3001 RMK AO1

Get Your Daily Forecast Email!

Thanks for signing up!

Be on the lookout for a verification email in your inbox.

You'll start receiving severe weather alerts in your inbox..

×

10-Day Weather Forecast

Almanac

Astronomy

Aug. 19, 2017 Rise Set
Actual Time
Civil Twilight
Nautical Twilight
Astronomical Twilight
Moon
Length of Visible Light
Length of Day
Tomorrow will be .
, % of the Moon is Illuminated

Today's Extremes

State Highs State Lows

Community

WunderPhotos

Category 6

Welcome to Category 6. This is the collective home for Weather Underground's featured writeups by Dr. Jeff Masters (right), Bob Henson (left), Chris Burt, and other regular contributors.

Nearby

Air Quality

  Air Quality AQ Index Pollutant
Not available.

Snow Depth

Station Depth Elevation

Earthquake Activity

City Distance Mag. Time & Date
Minimum magnitude displayed is 2.5.

Coastal Water Temperatures

Place Temperature

Stations

Nearby Weather Stations

Station Location Temp. Windchill Dew Point Humidity Wind Precip. Elev Updated Type
                   

Watches & Warnings

Severe Thunderstorm Watch
Issued: 6:23 PM EDT Aug. 19, 2017 – National Weather Service

Severe Thunderstorm Watch 457 remains in effect until 900 PM EDT

PA
. Pennsylvania counties included are

Adams Bedford Blair
centre Clinton Columbia
Cumberland Dauphin Fayette
Franklin Fulton Greene
Huntingdon Indiana Juniata
Lebanon Lycoming Mifflin
Montour Northumberland Perry
Snyder Somerset Sullivan
Union Westmoreland York